Latest Weather Observations for Double Island Point

IDQ60801

Issued at 1:02 pm EST Tuesday 21 April 2015 (issued every 30 minutes, with the page automatically refreshed every 10 minutes)

About weather observations | Map of weather stations | Latest weather observations for QLD | Other Formats
Station Details ID: 040068 Name: DOUBLE ISLAND POINT LIGHTHOUSE Lat: -25.93 Lon: 153.19 Height: 95.64 m
Data from the previous 72 hours. | See also: Recent months at Double Island Point
Date/Time
EST
Temp
°C
App
Temp
°C
Dew
Point
Rel
Hum
%
Delta-T
°C
Wind Press
QNH
hPa
Press
MSL
hPa
Rain
since 9 am
mm
Dir
 
Spd
km/h
Gust
km/h
Spd
kts
Gust
kts
21/01:00pm 21.0 18.8 10.8 52 5.6 W 13 20 7 11 1015.4 1015.0 0.0
21/12:30pm 20.6 19.5 12.1 58 4.8 WNW 9 15 5 8 1015.8 1015.4 0.0
21/12:00pm 19.4 17.5 10.4 56 4.9 W 11 17 6 9 1016.3 1015.9 0.0
21/11:30am 19.5 17.0 9.7 53 5.2 WNW 13 19 7 10 1016.6 1016.2 0.0
21/11:00am 18.8 17.1 11.1 61 4.2 WNW 11 15 6 8 1017.0 1016.6 0.0
21/10:30am 18.4 16.4 10.0 58 4.5 WSW 11 17 6 9 1017.1 1016.7 0.0
21/10:00am 18.3 17.2 9.9 58 4.5 SSW 6 9 3 5 1017.2 1016.8 0.0
21/09:30am 17.5 16.3 10.4 63 3.8 WSW 7 11 4 6 1017.4 1017.0 0.0
21/09:00am 17.5 16.6 9.4 59 4.2 SW 4 9 2 5 1017.5 1017.1 6.8
21/08:30am 16.9 15.0 9.1 60 4.1 WSW 9 13 5 7 1017.4 1017.0 6.8
21/08:00am 16.8 14.2 9.2 61 4.0 WSW 13 17 7 9 1017.0 1016.6 6.8
21/07:30am 16.2 12.5 7.9 58 4.2 SSW 17 22 9 12 1016.7 1016.3 6.8
21/07:00am 15.8 13.1 8.8 63 3.6 SW 13 15 7 8 1016.5 1016.1 6.8
21/06:30am 16.0 15.0 10.3 69 3.0 SW 6 11 3 6 1016.2 1015.8 6.8
21/06:00am 16.0 13.6 9.9 67 3.2 SSW 13 17 7 9 1015.8 1015.4 6.8
21/05:30am 16.8 15.0 10.9 68 3.2 SSW 11 20 6 11 1015.8 1015.4 6.8
21/05:00am 16.8 11.8 9.7 63 3.7 WSW 26 32 14 17 1015.3 1014.9 6.8
21/04:30am 17.4 12.3 10.5 64 3.7 WSW 28 33 15 18 1015.1 1014.7 6.8
21/04:00am 17.0 11.9 10.6 66 3.4 WSW 28 37 15 20 1015.2 1014.8 6.8
21/03:30am 16.5 10.1 10.6 68 3.2 WSW 35 50 19 27 1014.9 1014.5 6.8
21/03:00am 17.9 14.2 11.5 66 3.5 WSW 22 33 12 18 1014.9 1014.5 6.8
21/02:30am 17.5 13.1 11.8 69 3.1 WSW 26 37 14 20 1015.1 1014.7 6.8
21/02:00am 17.4 13.9 13.3 77 2.3 WSW 24 33 13 18 1015.4 1015.0 6.8
21/01:30am 17.7 14.5 14.2 80 2.0 WSW 24 30 13 16 1015.2 1014.8 6.8
21/01:00am 17.4 14.2 14.3 82 1.8 WSW 24 30 13 16 1015.8 1015.4 6.8
21/12:30am 17.5 13.9 14.2 81 1.9 WSW 26 33 14 18 1015.7 1015.3 6.8
 
Date/Time
EST
Temp
°C
App
Temp
°C
Dew
Point
Rel
Hum
%
Delta-T
°C
Wind Press
QNH
hPa
Press
MSL
hPa
Rain
since 9 am
mm
Dir
 
Spd
km/h
Gust
km/h
Spd
kts
Gust
kts
20/11:30pm 17.9 13.4 15.3 85 1.5 WSW 33 43 18 23 1016.5 1016.1 6.8
20/11:00pm 18.3 14.3 16.1 87 1.3 W 32 41 17 22 1017.1 1016.7 6.8
20/10:30pm 18.7 16.0 16.5 87 1.3 WSW 26 32 14 17 1017.3 1016.9 6.8
20/10:00pm 20.9 20.1 17.9 83 1.9 SE 19 24 10 13 1017.1 1016.7 6.8
20/09:30pm 20.9 18.1 18.3 85 1.6 SE 30 39 16 21 1016.5 1016.1 6.8
20/09:00pm 20.2 16.9 18.0 87 1.4 SE 32 41 17 22 1016.0 1015.6 6.8
20/08:30pm 19.6 16.8 17.4 87 1.3 S 28 35 15 19 1016.4 1016.0 6.8
20/08:00pm 19.4 18.1 17.2 87 1.3 S 20 28 11 15 1017.5 1017.1 6.8
20/07:30pm 19.2 18.0 17.0 87 1.3 WSW 19 22 10 12 1018.1 1017.7 6.8
20/07:00pm 19.2 17.8 17.0 87 1.3 SSW 20 24 11 13 1017.7 1017.3 6.8
20/06:30pm 19.0 18.3 16.4 85 1.6 S 15 19 8 10 1017.2 1016.8 6.8
20/06:00pm 18.7 19.2 16.5 87 1.3 SSW 9 13 5 7 1017.2 1016.8 6.8
20/05:30pm 18.6 18.3 16.4 87 1.3 SSW 13 17 7 9 1017.2 1016.8 6.8
20/05:00pm 18.7 18.1 16.7 88 1.2 SSW 15 20 8 11 1017.0 1016.6 6.4
20/04:30pm 18.8 17.3 16.8 88 1.2 WSW 20 28 11 15 1016.9 1016.5 6.2
20/04:00pm 19.0 19.0 17.1 89 1.2 WSW 13 17 7 9 1016.4 1016.0 6.0
20/03:30pm 18.6 18.4 16.6 88 1.2 SSW 13 24 7 13 1016.3 1015.9 5.8
20/03:00pm 19.5 17.5 17.3 87 1.3 W 24 33 13 18 1016.5 1016.1 3.8
20/02:30pm 19.5 18.3 17.5 88 1.2 SSW 20 26 11 14 1016.1 1015.7 3.4
20/02:00pm 20.6 19.4 18.5 88 1.3 S 22 32 12 17 1015.9 1015.5 0.6
20/01:30pm 21.2 17.8 17.8 81 2.1 S 32 39 17 21 1016.1 1015.7 0.0
20/01:00pm 22.6 20.0 17.9 75 2.9 SSE 28 35 15 19 1016.2 1015.8 0.0
20/12:30pm 22.3 19.9 18.3 78 2.5 SSE 28 35 15 19 1016.4 1016.0 0.0
20/12:00pm 22.5 19.3 18.1 76 2.8 S 32 37 17 20 1016.8 1016.4 0.0
20/11:30am 22.4 18.9 18.0 76 2.8 S 33 41 18 22 1017.2 1016.8 0.0
20/11:00am 22.6 19.3 18.4 77 2.6 S 33 41 18 22 1017.4 1017.0 0.0
20/10:30am 22.5 19.0 18.7 79 2.4 SSE 35 43 19 23 1017.6 1017.2 0.0
20/10:00am 22.6 19.3 18.4 77 2.6 SSE 33 41 18 22 1017.9 1017.5 0.0
20/09:30am 22.5 18.3 18.1 76 2.8 SSE 37 46 20 25 1018.0 1017.6 0.0
20/09:00am 22.5 18.0 18.3 77 2.6 SSE 39 46 21 25 1017.8 1017.4 0.4
20/08:30am 22.3 18.2 19.1 82 2.0 SSE 39 52 21 28 1017.7 1017.3 0.4
20/08:00am 22.2 19.1 18.8 81 2.1 SSE 33 41 18 22 1017.5 1017.1 0.4
20/07:30am 22.0 20.2 18.8 82 2.0 SSE 26 32 14 17 1017.6 1017.2 0.4
20/07:00am 21.8 20.7 18.6 82 2.0 SSE 22 28 12 15 1017.5 1017.1 0.4
20/06:30am 21.5 20.0 18.5 83 1.9 SSE 24 32 13 17 1017.2 1016.8 0.4
20/06:00am 21.2 20.6 18.8 86 1.5 SSE 20 24 11 13 1017.0 1016.6 0.4
20/05:30am 21.1 20.7 18.9 87 1.4 SE 19 20 10 11 1016.9 1016.5 0.4
20/05:00am 21.0 20.0 18.8 87 1.4 SSE 22 28 12 15 1016.8 1016.4 0.4
20/04:30am 21.2 19.6 19.1 88 1.3 SE 26 30 14 16 1016.5 1016.1 0.4
20/04:00am 21.7 22.1 19.1 85 1.6 S 15 19 8 10 1016.6 1016.2 0.2
20/03:30am 21.9 22.7 19.1 84 1.8 SE 13 17 7 9 1016.7 1016.3 0.2
20/03:00am 22.0 22.9 19.2 84 1.8 SE 13 17 7 9 1016.6 1016.2 0.2
20/02:30am 22.5 23.8 19.3 82 2.0 SSW 11 15 6 8 1016.8 1016.4 0.2
20/02:00am 22.5 22.7 19.3 82 2.0 W 17 22 9 12 1016.9 1016.5 0.2
20/01:30am 22.5 22.3 19.3 82 2.0 W 19 24 10 13 1016.9 1016.5 0.2
20/01:00am 22.6 22.5 19.6 83 1.9 W 19 24 10 13 1017.2 1016.8 0.2
20/12:30am 22.6 23.2 19.4 82 2.0 W 15 20 8 11 1017.3 1016.9 0.2
20/12:00am 22.8 23.6 19.8 83 1.9 WNW 15 17 8 9 1017.6 1017.2 0.2
 
Date/Time
EST
Temp
°C
App
Temp
°C
Dew
Point
Rel
Hum
%
Delta-T
°C
Wind Press
QNH
hPa
Press
MSL
hPa
Rain
since 9 am
mm
Dir
 
Spd
km/h
Gust
km/h
Spd
kts
Gust
kts
19/11:30pm 22.9 23.7 19.9 83 1.9 WNW 15 17 8 9 1017.9 1017.5 0.2
19/11:00pm 23.4 24.2 19.1 77 2.7 NNW 13 19 7 10 - - 0.2
19/10:30pm 23.3 24.4 18.0 72 3.3 N 9 13 5 7 1018.3 1017.9 0.2
19/10:00pm 23.4 25.0 18.3 73 3.2 N 7 15 4 8 1018.7 1018.3 0.2
19/09:30pm 23.3 25.1 18.8 76 2.9 N 7 17 4 9 1018.4 1018.0 0.2
19/09:00pm 23.2 23.5 18.7 76 2.8 NNE 15 19 8 10 1018.4 1018.0 0.2
19/08:30pm 23.3 23.3 19.0 77 2.7 NNE 17 20 9 11 1018.6 1018.2 0.2
19/08:00pm 23.1 24.0 19.3 79 2.4 NNE 13 19 7 10 1018.6 1018.2 0.2
19/07:30pm 23.3 24.1 19.9 81 2.2 NNE 15 19 8 10 1018.3 1017.9 0.2
19/07:00pm 23.2 23.2 19.8 81 2.2 NNE 19 22 10 12 1017.7 1017.3 0.2
19/06:30pm 23.2 24.0 19.8 81 2.2 NNE 15 19 8 10 1017.5 1017.1 0.2
19/06:00pm 23.2 23.5 19.6 80 2.3 NNE 17 20 9 11 1017.4 1017.0 0.2
19/05:30pm 23.6 26.0 19.7 79 2.5 N 6 13 3 7 1017.5 1017.1 0.2
19/05:00pm 24.1 24.6 19.2 74 3.1 NNE 15 20 8 11 1016.9 1016.5 0.2
19/04:30pm 24.3 25.0 18.9 72 3.4 NNE 13 15 7 8 1017.0 1016.6 0.2
19/04:00pm 25.4 27.2 19.5 70 3.8 N 9 15 5 8 1016.6 1016.2 0.2
19/03:30pm 25.0 26.6 18.2 66 4.3 NNW 7 15 4 8 1016.9 1016.5 0.2
19/03:00pm 27.2 29.3 19.0 61 5.3 N 6 9 3 5 1016.8 1016.4 0.2
19/02:30pm 28.0 30.0 20.0 61 5.2 N 9 17 5 9 1016.7 1016.3 0.2
19/02:00pm 25.9 27.7 19.5 68 4.1 N 9 17 5 9 1017.2 1016.8 0.2
19/01:30pm 25.5 25.0 18.7 66 4.3 NNE 19 22 10 12 1017.3 1016.9 0.2
19/01:00pm 24.4 25.9 18.8 71 3.6 N 9 17 5 9 1017.6 1017.2 0.2
19/12:30pm 24.6 25.5 19.2 72 3.5 N 13 22 7 12 1017.8 1017.4 0.2
19/12:00pm 26.6 27.5 19.2 64 4.8 N 13 24 7 13 1018.4 1018.0 0.2
19/11:30am 26.9 27.8 20.0 66 4.5 N 15 33 8 18 1018.8 1018.4 0.2
19/11:00am 27.2 28.1 19.3 62 5.1 N 13 22 7 12 1019.2 1018.8 0.2
19/10:30am 28.4 30.4 19.9 60 5.6 N 9 17 5 9 1019.4 1019.0 0.2
19/10:00am 26.9 29.2 19.5 64 4.8 NNE 6 9 3 5 1019.5 1019.1 0.2
19/09:30am 26.0 28.6 19.2 66 4.4 N 4 9 2 5 1019.6 1019.2 0.2
19/09:00am 24.4 26.4 19.2 73 3.3 E 7 9 4 5 1019.6 1019.2 0.8
19/08:30am 24.5 26.4 18.9 71 3.6 ESE 7 9 4 5 1019.5 1019.1 0.8
19/08:00am 24.0 26.2 19.3 75 3.0 SSE 6 9 3 5 1019.5 1019.1 0.8
19/07:30am 22.8 24.7 19.0 79 2.4 S 7 9 4 5 1019.3 1018.9 0.8
19/07:00am 22.3 24.0 18.5 79 2.4 SE 7 11 4 6 1018.8 1018.4 0.8
19/06:30am 21.5 22.6 17.9 80 2.2 SSE 9 11 5 6 1018.7 1018.3 0.8
19/06:00am 21.7 22.3 16.9 74 2.9 SSE 9 9 5 5 1018.5 1018.1 0.8
19/05:30am 21.1 22.2 17.1 78 2.5 SSW 7 9 4 5 1018.5 1018.1 0.8
19/05:00am 20.7 20.8 18.3 86 1.5 SSW 15 17 8 9 1018.2 1017.8 0.8
19/04:30am 20.6 20.2 18.0 85 1.6 SSW 17 19 9 10 1018.0 1017.6 0.8
19/04:00am 20.8 21.1 18.0 84 1.7 WSW 13 15 7 8 1018.1 1017.7 0.8
19/03:30am 20.5 20.1 18.1 86 1.5 WNW 17 19 9 10 1018.5 1018.1 0.8
19/03:00am 20.8 22.0 18.2 85 1.6 NW 9 15 5 8 1018.4 1018.0 0.8
19/02:30am 21.1 22.6 18.1 83 1.9 NNE 7 11 4 6 1018.8 1018.4 0.6
19/02:00am 21.6 22.8 18.2 81 2.1 NNW 9 15 5 8 1019.0 1018.6 0.2
19/01:30am 21.5 20.5 17.9 80 2.2 NW 20 24 11 13 1019.2 1018.8 0.2
19/01:00am 21.4 19.7 18.2 82 2.0 WNW 24 30 13 16 1019.6 1019.2 0.2
19/12:30am 21.2 20.4 18.0 82 2.0 NW 19 22 10 12 1020.0 1019.6 0.2
19/12:00am 21.4 20.2 17.0 76 2.7 ENE 19 41 10 22 1020.2 1019.8 0.2
 
Date/Time
EST
Temp
°C
App
Temp
°C
Dew
Point
Rel
Hum
%
Delta-T
°C
Wind Press
QNH
hPa
Press
MSL
hPa
Rain
since 9 am
mm
Dir
 
Spd
km/h
Gust
km/h
Spd
kts
Gust
kts
18/11:30pm 23.3 21.9 17.1 68 3.8 NNE 20 32 11 17 1020.1 1019.7 0.2
18/11:00pm 23.1 21.2 17.6 71 3.4 NNE 24 37 13 20 1020.1 1019.7 0.2
18/10:30pm 22.8 20.3 18.1 75 2.9 NNE 28 39 15 21 1020.3 1019.9 0.2
18/10:00pm 23.1 21.4 18.2 74 3.1 NNE 24 35 13 19 1020.5 1020.1 0.2
18/09:30pm 23.0 22.1 18.1 74 3.1 NE 20 30 11 16 1020.7 1020.3 0.2
18/09:00pm 22.9 22.3 18.9 78 2.5 NE 20 30 11 16 1020.8 1020.4 0.2
18/08:30pm 22.8 21.8 18.8 78 2.5 NE 22 35 12 19 1020.4 1020.0 0.2
18/08:00pm 22.9 21.7 19.3 80 2.3 NE 24 33 13 18 1020.3 1019.9 0.2
18/07:30pm 23.2 20.9 19.4 79 2.4 ENE 30 35 16 19 1020.0 1019.6 0.2
18/07:00pm 23.1 22.2 19.1 78 2.5 NE 22 32 12 17 1019.8 1019.4 0.2
18/06:30pm 23.2 21.6 19.1 78 2.6 NE 26 33 14 18 1019.5 1019.1 0.2
18/06:00pm 23.4 21.8 19.1 77 2.7 NE 26 35 14 19 1019.3 1018.9 0.2
18/05:30pm 23.7 21.7 18.4 72 3.4 ENE 26 32 14 17 1019.2 1018.8 0.2
18/05:00pm 24.7 24.5 17.7 65 4.4 NE 15 22 8 12 1019.4 1019.0 0.2
18/04:30pm 24.9 24.4 17.9 65 4.4 NE 17 22 9 12 1019.2 1018.8 0.2
18/04:00pm 25.8 25.4 18.0 62 4.9 NE 17 22 9 12 1018.8 1018.4 0.2
18/03:30pm 26.9 27.7 19.0 62 5.1 NE 13 20 7 11 1019.0 1018.6 0.2
18/03:00pm 26.6 27.2 18.5 61 5.2 NE 13 20 7 11 1019.0 1018.6 0.2
18/02:30pm 26.5 26.5 18.1 60 5.3 NE 15 24 8 13 1019.0 1018.6 0.2
18/02:00pm 26.6 25.9 18.2 60 5.3 NE 19 24 10 13 1019.1 1018.7 0.2
18/01:30pm 27.4 27.7 18.7 59 5.6 NE 15 22 8 12 1019.3 1018.9 0.2

Other Formats:

Comma delimited format used in spreadsheet applications
http://www.bom.gov.au/fwo/IDQ60801/IDQ60801.94584.axf

JavaScript Object Notation format (JSON) in row-major order
http://www.bom.gov.au/fwo/IDQ60801/IDQ60801.94584.json